sensor_id;sensor_type;location;lat;lon;timestamp;P1;durP1;ratioP1;P2;durP2;ratioP2
80229;SDS011;69540;42.136;24.742;2024-02-16T00:00:07;4.20;;;3.80;;
80229;SDS011;69540;42.136;24.742;2024-02-16T00:02:33;4.72;;;3.53;;
80229;SDS011;69540;42.136;24.742;2024-02-16T00:04:59;4.72;;;3.85;;
80229;SDS011;69540;42.136;24.742;2024-02-16T00:07:25;6.32;;;3.90;;
80229;SDS011;69540;42.136;24.742;2024-02-16T00:09:50;4.60;;;3.70;;
80229;SDS011;69540;42.136;24.742;2024-02-16T00:12:16;4.20;;;3.70;;
80229;SDS011;69540;42.136;24.742;2024-02-16T00:14:42;5.47;;;3.78;;
80229;SDS011;69540;42.136;24.742;2024-02-16T00:17:08;4.97;;;3.67;;
80229;SDS011;69540;42.136;24.742;2024-02-16T00:19:36;4.20;;;3.80;;
80229;SDS011;69540;42.136;24.742;2024-02-16T00:22:02;5.90;;;4.35;;
80229;SDS011;69540;42.136;24.742;2024-02-16T00:24:28;5.75;;;4.13;;
80229;SDS011;69540;42.136;24.742;2024-02-16T00:26:56;4.05;;;3.67;;
80229;SDS011;69540;42.136;24.742;2024-02-16T00:29:22;4.03;;;3.65;;
80229;SDS011;69540;42.136;24.742;2024-02-16T00:31:48;4.82;;;3.88;;
80229;SDS011;69540;42.136;24.742;2024-02-16T00:34:14;5.30;;;4.03;;
80229;SDS011;69540;42.136;24.742;2024-02-16T00:36:39;4.70;;;3.97;;
80229;SDS011;69540;42.136;24.742;2024-02-16T00:39:05;4.18;;;3.78;;
80229;SDS011;69540;42.136;24.742;2024-02-16T00:41:31;4.88;;;4.18;;
80229;SDS011;69540;42.136;24.742;2024-02-16T00:43:56;4.60;;;4.20;;
80229;SDS011;69540;42.136;24.742;2024-02-16T00:46:22;4.65;;;4.15;;
80229;SDS011;69540;42.136;24.742;2024-02-16T00:48:49;3.78;;;3.45;;
80229;SDS011;69540;42.136;24.742;2024-02-16T00:51:15;4.50;;;4.10;;
80229;SDS011;69540;42.136;24.742;2024-02-16T00:53:41;5.40;;;4.00;;
80229;SDS011;69540;42.136;24.742;2024-02-16T00:56:07;4.32;;;3.88;;
80229;SDS011;69540;42.136;24.742;2024-02-16T00:58:33;5.60;;;4.10;;
80229;SDS011;69540;42.136;24.742;2024-02-16T01:00:59;5.60;;;4.13;;
80229;SDS011;69540;42.136;24.742;2024-02-16T01:03:25;4.53;;;3.75;;
80229;SDS011;69540;42.136;24.742;2024-02-16T01:05:52;4.90;;;3.75;;
80229;SDS011;69540;42.136;24.742;2024-02-16T01:08:18;4.50;;;3.90;;
80229;SDS011;69540;42.136;24.742;2024-02-16T01:10:44;4.20;;;3.80;;
80229;SDS011;69540;42.136;24.742;2024-02-16T01:13:09;3.95;;;3.58;;
80229;SDS011;69540;42.136;24.742;2024-02-16T01:15:35;5.28;;;3.67;;
80229;SDS011;69540;42.136;24.742;2024-02-16T01:18:02;4.30;;;3.90;;
80229;SDS011;69540;42.136;24.742;2024-02-16T01:20:30;4.35;;;3.60;;
80229;SDS011;69540;42.136;24.742;2024-02-16T01:22:57;4.25;;;3.85;;
80229;SDS011;69540;42.136;24.742;2024-02-16T01:25:22;4.20;;;3.72;;
80229;SDS011;69540;42.136;24.742;2024-02-16T01:27:48;5.75;;;3.47;;
80229;SDS011;69540;42.136;24.742;2024-02-16T01:30:14;4.35;;;3.65;;
80229;SDS011;69540;42.136;24.742;2024-02-16T01:32:40;3.95;;;3.53;;
80229;SDS011;69540;42.136;24.742;2024-02-16T01:35:06;3.97;;;3.53;;
80229;SDS011;69540;42.136;24.742;2024-02-16T01:37:32;5.15;;;3.83;;
80229;SDS011;69540;42.136;24.742;2024-02-16T01:39:58;3.83;;;3.42;;
80229;SDS011;69540;42.136;24.742;2024-02-16T01:42:24;4.80;;;3.65;;
80229;SDS011;69540;42.136;24.742;2024-02-16T01:44:50;3.70;;;3.40;;
80229;SDS011;69540;42.136;24.742;2024-02-16T01:47:16;4.07;;;3.67;;
80229;SDS011;69540;42.136;24.742;2024-02-16T01:49:44;4.75;;;3.50;;
80229;SDS011;69540;42.136;24.742;2024-02-16T01:52:10;4.28;;;3.33;;
80229;SDS011;69540;42.136;24.742;2024-02-16T01:54:37;3.85;;;3.40;;
80229;SDS011;69540;42.136;24.742;2024-02-16T01:57:04;4.10;;;3.28;;
80229;SDS011;69540;42.136;24.742;2024-02-16T01:59:30;3.83;;;3.50;;
80229;SDS011;69540;42.136;24.742;2024-02-16T02:01:58;3.70;;;3.35;;
80229;SDS011;69540;42.136;24.742;2024-02-16T02:04:24;4.32;;;3.40;;
80229;SDS011;69540;42.136;24.742;2024-02-16T02:06:51;3.97;;;3.63;;
80229;SDS011;69540;42.136;24.742;2024-02-16T02:09:17;4.10;;;3.70;;
80229;SDS011;69540;42.136;24.742;2024-02-16T02:11:43;4.78;;;3.70;;
80229;SDS011;69540;42.136;24.742;2024-02-16T02:14:09;3.72;;;3.38;;
80229;SDS011;69540;42.136;24.742;2024-02-16T02:16:35;5.97;;;3.92;;
80229;SDS011;69540;42.136;24.742;2024-02-16T02:19:02;3.92;;;3.38;;
80229;SDS011;69540;42.136;24.742;2024-02-16T02:21:28;3.83;;;3.35;;
80229;SDS011;69540;42.136;24.742;2024-02-16T02:23:54;3.60;;;3.30;;
80229;SDS011;69540;42.136;24.742;2024-02-16T02:26:20;4.00;;;3.60;;
80229;SDS011;69540;42.136;24.742;2024-02-16T02:28:46;4.00;;;3.40;;
80229;SDS011;69540;42.136;24.742;2024-02-16T02:31:11;5.85;;;3.60;;
80229;SDS011;69540;42.136;24.742;2024-02-16T02:33:38;4.45;;;3.72;;
80229;SDS011;69540;42.136;24.742;2024-02-16T02:36:04;4.35;;;3.75;;
80229;SDS011;69540;42.136;24.742;2024-02-16T02:38:30;4.53;;;3.65;;
80229;SDS011;69540;42.136;24.742;2024-02-16T02:40:55;4.07;;;3.55;;
80229;SDS011;69540;42.136;24.742;2024-02-16T02:43:21;4.20;;;3.80;;
80229;SDS011;69540;42.136;24.742;2024-02-16T02:45:48;5.38;;;3.85;;
80229;SDS011;69540;42.136;24.742;2024-02-16T02:48:14;5.35;;;3.92;;
80229;SDS011;69540;42.136;24.742;2024-02-16T02:50:39;7.68;;;3.90;;
80229;SDS011;69540;42.136;24.742;2024-02-16T02:53:05;5.13;;;4.28;;
80229;SDS011;69540;42.136;24.742;2024-02-16T02:55:31;5.35;;;3.80;;
80229;SDS011;69540;42.136;24.742;2024-02-16T02:57:56;5.60;;;3.88;;
80229;SDS011;69540;42.136;24.742;2024-02-16T03:00:23;5.38;;;4.10;;
80229;SDS011;69540;42.136;24.742;2024-02-16T03:02:50;5.07;;;3.70;;
80229;SDS011;69540;42.136;24.742;2024-02-16T03:05:16;7.45;;;4.35;;
80229;SDS011;69540;42.136;24.742;2024-02-16T03:07:44;7.68;;;4.18;;
80229;SDS011;69540;42.136;24.742;2024-02-16T03:10:10;7.78;;;4.70;;
80229;SDS011;69540;42.136;24.742;2024-02-16T03:12:36;4.90;;;3.80;;
80229;SDS011;69540;42.136;24.742;2024-02-16T03:15:01;6.20;;;4.38;;
80229;SDS011;69540;42.136;24.742;2024-02-16T03:17:28;4.72;;;4.13;;
80229;SDS011;69540;42.136;24.742;2024-02-16T03:19:54;5.00;;;4.43;;
80229;SDS011;69540;42.136;24.742;2024-02-16T03:22:20;4.85;;;4.30;;
80229;SDS011;69540;42.136;24.742;2024-02-16T03:24:45;5.72;;;4.00;;
80229;SDS011;69540;42.136;24.742;2024-02-16T03:27:12;5.35;;;4.57;;
80229;SDS011;69540;42.136;24.742;2024-02-16T03:29:39;4.65;;;3.75;;
80229;SDS011;69540;42.136;24.742;2024-02-16T03:32:04;5.50;;;4.10;;
80229;SDS011;69540;42.136;24.742;2024-02-16T03:34:30;4.78;;;4.28;;
80229;SDS011;69540;42.136;24.742;2024-02-16T03:36:56;4.72;;;3.88;;
80229;SDS011;69540;42.136;24.742;2024-02-16T03:39:23;5.70;;;4.07;;
80229;SDS011;69540;42.136;24.742;2024-02-16T03:41:49;5.45;;;4.03;;
80229;SDS011;69540;42.136;24.742;2024-02-16T03:44:15;5.35;;;4.07;;
80229;SDS011;69540;42.136;24.742;2024-02-16T03:46:43;6.03;;;4.20;;
80229;SDS011;69540;42.136;24.742;2024-02-16T03:49:09;4.50;;;4.05;;
80229;SDS011;69540;42.136;24.742;2024-02-16T03:51:35;4.40;;;3.67;;
80229;SDS011;69540;42.136;24.742;2024-02-16T03:54:02;5.10;;;3.92;;
80229;SDS011;69540;42.136;24.742;2024-02-16T03:56:29;4.15;;;3.38;;
80229;SDS011;69540;42.136;24.742;2024-02-16T03:58:55;4.72;;;4.00;;
80229;SDS011;69540;42.136;24.742;2024-02-16T04:01:21;4.30;;;3.80;;
80229;SDS011;69540;42.136;24.742;2024-02-16T04:03:47;4.10;;;3.70;;
80229;SDS011;69540;42.136;24.742;2024-02-16T04:06:12;4.00;;;3.63;;
80229;SDS011;69540;42.136;24.742;2024-02-16T04:08:38;4.43;;;3.60;;
80229;SDS011;69540;42.136;24.742;2024-02-16T04:11:04;4.10;;;3.72;;
80229;SDS011;69540;42.136;24.742;2024-02-16T04:13:31;5.03;;;3.85;;
80229;SDS011;69540;42.136;24.742;2024-02-16T04:15:57;4.10;;;3.75;;
80229;SDS011;69540;42.136;24.742;2024-02-16T04:18:23;4.72;;;3.67;;
80229;SDS011;69540;42.136;24.742;2024-02-16T04:20:49;4.55;;;3.60;;
80229;SDS011;69540;42.136;24.742;2024-02-16T04:23:15;4.15;;;3.75;;
80229;SDS011;69540;42.136;24.742;2024-02-16T04:25:40;4.25;;;3.85;;
80229;SDS011;69540;42.136;24.742;2024-02-16T04:28:06;4.40;;;3.85;;
80229;SDS011;69540;42.136;24.742;2024-02-16T04:30:32;5.80;;;4.18;;
80229;SDS011;69540;42.136;24.742;2024-02-16T04:32:57;6.25;;;3.83;;
80229;SDS011;69540;42.136;24.742;2024-02-16T04:35:23;5.75;;;3.40;;
80229;SDS011;69540;42.136;24.742;2024-02-16T04:37:49;4.68;;;3.80;;
80229;SDS011;69540;42.136;24.742;2024-02-16T04:40:14;5.88;;;3.85;;
80229;SDS011;69540;42.136;24.742;2024-02-16T04:42:40;4.38;;;3.35;;
80229;SDS011;69540;42.136;24.742;2024-02-16T04:45:06;5.40;;;3.88;;
80229;SDS011;69540;42.136;24.742;2024-02-16T04:47:33;4.80;;;4.22;;
80229;SDS011;69540;42.136;24.742;2024-02-16T04:49:58;4.90;;;3.88;;
80229;SDS011;69540;42.136;24.742;2024-02-16T04:52:24;4.88;;;4.07;;
80229;SDS011;69540;42.136;24.742;2024-02-16T04:54:50;4.22;;;3.83;;
80229;SDS011;69540;42.136;24.742;2024-02-16T04:57:15;4.07;;;3.55;;
80229;SDS011;69540;42.136;24.742;2024-02-16T04:59:41;4.30;;;3.70;;
80229;SDS011;69540;42.136;24.742;2024-02-16T05:02:07;5.03;;;4.40;;
80229;SDS011;69540;42.136;24.742;2024-02-16T05:04:32;5.03;;;3.85;;
80229;SDS011;69540;42.136;24.742;2024-02-16T05:06:59;4.05;;;3.60;;
80229;SDS011;69540;42.136;24.742;2024-02-16T05:09:25;5.53;;;3.80;;
80229;SDS011;69540;42.136;24.742;2024-02-16T05:11:51;5.97;;;3.97;;
80229;SDS011;69540;42.136;24.742;2024-02-16T05:14:17;4.68;;;4.18;;
80229;SDS011;69540;42.136;24.742;2024-02-16T05:16:43;4.18;;;3.78;;
80229;SDS011;69540;42.136;24.742;2024-02-16T05:19:10;7.28;;;4.22;;
80229;SDS011;69540;42.136;24.742;2024-02-16T05:21:35;5.30;;;3.78;;
80229;SDS011;69540;42.136;24.742;2024-02-16T05:24:01;5.00;;;4.32;;
80229;SDS011;69540;42.136;24.742;2024-02-16T05:26:27;4.38;;;3.72;;
80229;SDS011;69540;42.136;24.742;2024-02-16T05:28:53;4.20;;;3.75;;
80229;SDS011;69540;42.136;24.742;2024-02-16T05:31:19;4.65;;;4.13;;
80229;SDS011;69540;42.136;24.742;2024-02-16T05:33:46;4.85;;;4.13;;
80229;SDS011;69540;42.136;24.742;2024-02-16T05:36:18;5.55;;;4.20;;
80229;SDS011;69540;42.136;24.742;2024-02-16T05:38:52;5.40;;;4.50;;
80229;SDS011;69540;42.136;24.742;2024-02-16T05:41:20;4.50;;;3.95;;
80229;SDS011;69540;42.136;24.742;2024-02-16T05:43:45;5.20;;;4.03;;
80229;SDS011;69540;42.136;24.742;2024-02-16T05:46:15;5.50;;;4.22;;
80229;SDS011;69540;42.136;24.742;2024-02-16T05:48:41;3.80;;;3.47;;
80229;SDS011;69540;42.136;24.742;2024-02-16T05:51:07;4.95;;;3.97;;
80229;SDS011;69540;42.136;24.742;2024-02-16T05:53:33;4.68;;;3.90;;
80229;SDS011;69540;42.136;24.742;2024-02-16T05:55:59;4.85;;;4.05;;
80229;SDS011;69540;42.136;24.742;2024-02-16T05:58:26;4.80;;;4.30;;
80229;SDS011;69540;42.136;24.742;2024-02-16T06:00:52;5.22;;;4.57;;
80229;SDS011;69540;42.136;24.742;2024-02-16T06:03:19;6.30;;;4.50;;
80229;SDS011;69540;42.136;24.742;2024-02-16T06:05:45;6.20;;;4.30;;
80229;SDS011;69540;42.136;24.742;2024-02-16T06:08:11;6.30;;;4.60;;
80229;SDS011;69540;42.136;24.742;2024-02-16T06:10:38;6.28;;;4.50;;
80229;SDS011;69540;42.136;24.742;2024-02-16T06:13:03;5.13;;;4.45;;
80229;SDS011;69540;42.136;24.742;2024-02-16T06:15:29;8.38;;;4.68;;
80229;SDS011;69540;42.136;24.742;2024-02-16T06:17:55;5.22;;;3.95;;
80229;SDS011;69540;42.136;24.742;2024-02-16T06:20:21;6.30;;;4.20;;
80229;SDS011;69540;42.136;24.742;2024-02-16T06:22:47;5.90;;;4.43;;
80229;SDS011;69540;42.136;24.742;2024-02-16T06:25:13;6.80;;;4.28;;
80229;SDS011;69540;42.136;24.742;2024-02-16T06:27:40;7.70;;;5.03;;
80229;SDS011;69540;42.136;24.742;2024-02-16T06:30:06;5.65;;;4.75;;
80229;SDS011;69540;42.136;24.742;2024-02-16T06:32:37;6.75;;;4.90;;
80229;SDS011;69540;42.136;24.742;2024-02-16T06:35:03;6.15;;;4.13;;
80229;SDS011;69540;42.136;24.742;2024-02-16T06:37:29;7.40;;;4.57;;
80229;SDS011;69540;42.136;24.742;2024-02-16T06:39:54;5.82;;;4.40;;
80229;SDS011;69540;42.136;24.742;2024-02-16T06:42:20;6.63;;;4.40;;
80229;SDS011;69540;42.136;24.742;2024-02-16T06:44:46;5.90;;;4.70;;
80229;SDS011;69540;42.136;24.742;2024-02-16T06:47:12;4.63;;;4.22;;
80229;SDS011;69540;42.136;24.742;2024-02-16T06:49:37;5.43;;;4.57;;
80229;SDS011;69540;42.136;24.742;2024-02-16T06:52:03;5.00;;;4.50;;
80229;SDS011;69540;42.136;24.742;2024-02-16T06:54:29;6.85;;;4.65;;
80229;SDS011;69540;42.136;24.742;2024-02-16T06:56:55;5.65;;;4.30;;
80229;SDS011;69540;42.136;24.742;2024-02-16T06:59:20;5.78;;;4.53;;
80229;SDS011;69540;42.136;24.742;2024-02-16T07:01:47;4.43;;;4.00;;
80229;SDS011;69540;42.136;24.742;2024-02-16T07:04:13;4.95;;;4.40;;
80229;SDS011;69540;42.136;24.742;2024-02-16T07:06:38;4.97;;;4.05;;
80229;SDS011;69540;42.136;24.742;2024-02-16T07:09:04;7.65;;;3.70;;
80229;SDS011;69540;42.136;24.742;2024-02-16T07:11:30;4.93;;;3.72;;
80229;SDS011;69540;42.136;24.742;2024-02-16T07:13:55;4.43;;;4.03;;
80229;SDS011;69540;42.136;24.742;2024-02-16T07:16:21;4.63;;;3.50;;
80229;SDS011;69540;42.136;24.742;2024-02-16T07:18:47;4.55;;;4.10;;
80229;SDS011;69540;42.136;24.742;2024-02-16T07:21:12;4.80;;;3.45;;
80229;SDS011;69540;42.136;24.742;2024-02-16T07:23:38;4.45;;;3.88;;
80229;SDS011;69540;42.136;24.742;2024-02-16T07:26:04;4.63;;;3.95;;
80229;SDS011;69540;42.136;24.742;2024-02-16T07:28:30;4.28;;;3.60;;
80229;SDS011;69540;42.136;24.742;2024-02-16T07:30:56;6.22;;;3.92;;
80229;SDS011;69540;42.136;24.742;2024-02-16T07:33:22;4.70;;;3.80;;
80229;SDS011;69540;42.136;24.742;2024-02-16T07:35:49;7.18;;;3.80;;
80229;SDS011;69540;42.136;24.742;2024-02-16T07:38:16;4.53;;;3.80;;
80229;SDS011;69540;42.136;24.742;2024-02-16T07:40:42;4.68;;;3.95;;
80229;SDS011;69540;42.136;24.742;2024-02-16T07:43:10;6.45;;;4.15;;
80229;SDS011;69540;42.136;24.742;2024-02-16T07:45:36;9.25;;;3.90;;
80229;SDS011;69540;42.136;24.742;2024-02-16T07:48:02;4.35;;;3.85;;
80229;SDS011;69540;42.136;24.742;2024-02-16T07:50:30;4.20;;;3.80;;
80229;SDS011;69540;42.136;24.742;2024-02-16T07:52:56;6.93;;;3.85;;
80229;SDS011;69540;42.136;24.742;2024-02-16T07:55:21;5.35;;;4.07;;
80229;SDS011;69540;42.136;24.742;2024-02-16T07:57:49;5.20;;;4.05;;
80229;SDS011;69540;42.136;24.742;2024-02-16T08:00:15;5.05;;;4.43;;
80229;SDS011;69540;42.136;24.742;2024-02-16T08:02:41;4.35;;;3.95;;
80229;SDS011;69540;42.136;24.742;2024-02-16T08:05:10;4.88;;;3.75;;
80229;SDS011;69540;42.136;24.742;2024-02-16T08:07:38;6.18;;;4.30;;
80229;SDS011;69540;42.136;24.742;2024-02-16T08:10:09;6.25;;;4.25;;
80229;SDS011;69540;42.136;24.742;2024-02-16T08:12:35;7.20;;;4.88;;
80229;SDS011;69540;42.136;24.742;2024-02-16T08:15:02;6.85;;;4.45;;
80229;SDS011;69540;42.136;24.742;2024-02-16T08:17:29;5.32;;;4.30;;
80229;SDS011;69540;42.136;24.742;2024-02-16T08:19:56;7.07;;;4.32;;
80229;SDS011;69540;42.136;24.742;2024-02-16T08:22:21;4.95;;;4.18;;
80229;SDS011;69540;42.136;24.742;2024-02-16T08:24:47;5.88;;;4.15;;
80229;SDS011;69540;42.136;24.742;2024-02-16T08:27:15;5.57;;;4.47;;
80229;SDS011;69540;42.136;24.742;2024-02-16T08:29:41;4.82;;;4.30;;
80229;SDS011;69540;42.136;24.742;2024-02-16T08:32:07;6.05;;;4.43;;
80229;SDS011;69540;42.136;24.742;2024-02-16T08:34:34;6.28;;;4.72;;
80229;SDS011;69540;42.136;24.742;2024-02-16T08:37:02;4.78;;;4.22;;
80229;SDS011;69540;42.136;24.742;2024-02-16T08:39:28;3.90;;;3.60;;
80229;SDS011;69540;42.136;24.742;2024-02-16T08:41:58;6.20;;;3.47;;
80229;SDS011;69540;42.136;24.742;2024-02-16T08:44:24;6.13;;;3.40;;
80229;SDS011;69540;42.136;24.742;2024-02-16T08:46:51;3.70;;;3.30;;
80229;SDS011;69540;42.136;24.742;2024-02-16T08:49:17;4.28;;;3.15;;
80229;SDS011;69540;42.136;24.742;2024-02-16T08:51:43;3.50;;;3.20;;
80229;SDS011;69540;42.136;24.742;2024-02-16T08:54:10;3.58;;;3.28;;
80229;SDS011;69540;42.136;24.742;2024-02-16T08:56:35;4.18;;;3.38;;
80229;SDS011;69540;42.136;24.742;2024-02-16T08:59:04;3.50;;;3.20;;
80229;SDS011;69540;42.136;24.742;2024-02-16T09:01:34;4.07;;;3.67;;
80229;SDS011;69540;42.136;24.742;2024-02-16T09:04:01;3.60;;;3.28;;
80229;SDS011;69540;42.136;24.742;2024-02-16T09:06:27;4.35;;;3.30;;
80229;SDS011;69540;42.136;24.742;2024-02-16T09:08:53;3.85;;;3.55;;
80229;SDS011;69540;42.136;24.742;2024-02-16T09:11:20;4.40;;;3.97;;
80229;SDS011;69540;42.136;24.742;2024-02-16T09:13:45;4.90;;;3.70;;
80229;SDS011;69540;42.136;24.742;2024-02-16T09:16:12;4.30;;;3.90;;
80229;SDS011;69540;42.136;24.742;2024-02-16T09:18:38;4.22;;;3.83;;
80229;SDS011;69540;42.136;24.742;2024-02-16T09:21:04;4.75;;;3.45;;
80229;SDS011;69540;42.136;24.742;2024-02-16T09:23:33;4.47;;;3.70;;
80229;SDS011;69540;42.136;24.742;2024-02-16T09:26:00;4.05;;;3.65;;
80229;SDS011;69540;42.136;24.742;2024-02-16T09:30:53;4.38;;;3.80;;
80229;SDS011;69540;42.136;24.742;2024-02-16T09:33:20;4.20;;;3.75;;
80229;SDS011;69540;42.136;24.742;2024-02-16T09:35:47;4.82;;;3.92;;
80229;SDS011;69540;42.136;24.742;2024-02-16T09:38:16;3.75;;;3.40;;
80229;SDS011;69540;42.136;24.742;2024-02-16T09:40:42;4.80;;;3.80;;
80229;SDS011;69540;42.136;24.742;2024-02-16T09:43:09;4.03;;;3.63;;
80229;SDS011;69540;42.136;24.742;2024-02-16T09:45:34;3.70;;;3.40;;
80229;SDS011;69540;42.136;24.742;2024-02-16T09:48:01;3.88;;;3.47;;
80229;SDS011;69540;42.136;24.742;2024-02-16T09:50:27;4.32;;;3.92;;
80229;SDS011;69540;42.136;24.742;2024-02-16T09:52:55;4.97;;;3.78;;
80229;SDS011;69540;42.136;24.742;2024-02-16T09:55:21;3.60;;;3.30;;
80229;SDS011;69540;42.136;24.742;2024-02-16T09:57:58;6.18;;;3.80;;
80229;SDS011;69540;42.136;24.742;2024-02-16T10:00:24;4.10;;;3.58;;
80229;SDS011;69540;42.136;24.742;2024-02-16T10:02:50;4.57;;;3.17;;
80229;SDS011;69540;42.136;24.742;2024-02-16T10:05:17;3.20;;;2.90;;
80229;SDS011;69540;42.136;24.742;2024-02-16T10:07:44;3.70;;;3.30;;
80229;SDS011;69540;42.136;24.742;2024-02-16T10:13:06;3.30;;;3.00;;
80229;SDS011;69540;42.136;24.742;2024-02-16T10:15:33;3.40;;;3.10;;
80229;SDS011;69540;42.136;24.742;2024-02-16T10:18:00;4.75;;;2.53;;
80229;SDS011;69540;42.136;24.742;2024-02-16T10:20:28;2.92;;;2.58;;
80229;SDS011;69540;42.136;24.742;2024-02-16T10:23:06;3.25;;;2.85;;
80229;SDS011;69540;42.136;24.742;2024-02-16T10:25:36;3.47;;;3.17;;
80229;SDS011;69540;42.136;24.742;2024-02-16T10:28:09;3.40;;;3.10;;
80229;SDS011;69540;42.136;24.742;2024-02-16T10:30:37;4.55;;;3.53;;
80229;SDS011;69540;42.136;24.742;2024-02-16T10:33:04;5.80;;;3.88;;
80229;SDS011;69540;42.136;24.742;2024-02-16T10:35:32;5.80;;;3.30;;
80229;SDS011;69540;42.136;24.742;2024-02-16T10:38:02;3.33;;;2.80;;
80229;SDS011;69540;42.136;24.742;2024-02-16T10:40:38;2.55;;;2.42;;
80229;SDS011;69540;42.136;24.742;2024-02-16T10:43:05;2.75;;;2.55;;
80229;SDS011;69540;42.136;24.742;2024-02-16T10:45:38;2.72;;;2.45;;
80229;SDS011;69540;42.136;24.742;2024-02-16T10:50:32;2.60;;;2.40;;
80229;SDS011;69540;42.136;24.742;2024-02-16T10:55:40;2.42;;;2.22;;
80229;SDS011;69540;42.136;24.742;2024-02-16T10:58:07;2.28;;;2.08;;
80229;SDS011;69540;42.136;24.742;2024-02-16T11:00:34;2.80;;;2.60;;
80229;SDS011;69540;42.136;24.742;2024-02-16T11:03:01;2.78;;;2.55;;
80229;SDS011;69540;42.136;24.742;2024-02-16T11:05:32;2.90;;;2.70;;
80229;SDS011;69540;42.136;24.742;2024-02-16T11:08:05;3.28;;;2.90;;
80229;SDS011;69540;42.136;24.742;2024-02-16T11:10:36;3.25;;;2.95;;
80229;SDS011;69540;42.136;24.742;2024-02-16T11:13:02;2.83;;;2.60;;
80229;SDS011;69540;42.136;24.742;2024-02-16T11:15:32;3.38;;;3.08;;
80229;SDS011;69540;42.136;24.742;2024-02-16T11:18:02;6.30;;;5.00;;
80229;SDS011;69540;42.136;24.742;2024-02-16T11:20:29;4.47;;;3.65;;
80229;SDS011;69540;42.136;24.742;2024-02-16T11:23:06;3.60;;;3.30;;
80229;SDS011;69540;42.136;24.742;2024-02-16T11:25:34;3.03;;;2.80;;
80229;SDS011;69540;42.136;24.742;2024-02-16T11:28:01;2.90;;;2.70;;
80229;SDS011;69540;42.136;24.742;2024-02-16T11:30:28;3.10;;;2.80;;
80229;SDS011;69540;42.136;24.742;2024-02-16T11:32:53;2.83;;;2.60;;
80229;SDS011;69540;42.136;24.742;2024-02-16T11:35:19;2.70;;;2.50;;
80229;SDS011;69540;42.136;24.742;2024-02-16T11:37:45;3.92;;;2.33;;
80229;SDS011;69540;42.136;24.742;2024-02-16T11:40:12;2.70;;;2.50;;
80229;SDS011;69540;42.136;24.742;2024-02-16T11:42:38;2.58;;;2.38;;
80229;SDS011;69540;42.136;24.742;2024-02-16T11:45:04;1.80;;;1.70;;
80229;SDS011;69540;42.136;24.742;2024-02-16T11:47:31;2.10;;;1.90;;
80229;SDS011;69540;42.136;24.742;2024-02-16T11:50:06;2.50;;;2.30;;
80229;SDS011;69540;42.136;24.742;2024-02-16T11:52:36;2.47;;;2.28;;
80229;SDS011;69540;42.136;24.742;2024-02-16T11:55:03;4.45;;;2.50;;
80229;SDS011;69540;42.136;24.742;2024-02-16T11:57:33;2.67;;;2.30;;
80229;SDS011;69540;42.136;24.742;2024-02-16T12:00:00;1.90;;;1.77;;
80229;SDS011;69540;42.136;24.742;2024-02-16T12:02:32;2.60;;;2.00;;
80229;SDS011;69540;42.136;24.742;2024-02-16T12:04:59;2.08;;;1.98;;
80229;SDS011;69540;42.136;24.742;2024-02-16T12:07:26;2.10;;;2.00;;
80229;SDS011;69540;42.136;24.742;2024-02-16T12:09:57;3.25;;;2.50;;
80229;SDS011;69540;42.136;24.742;2024-02-16T12:12:27;3.03;;;2.75;;
80229;SDS011;69540;42.136;24.742;2024-02-16T12:14:56;4.57;;;3.00;;
80229;SDS011;69540;42.136;24.742;2024-02-16T12:17:22;2.47;;;2.28;;
80229;SDS011;69540;42.136;24.742;2024-02-16T12:19:47;1.88;;;1.77;;
80229;SDS011;69540;42.136;24.742;2024-02-16T12:22:22;2.40;;;2.05;;
80229;SDS011;69540;42.136;24.742;2024-02-16T12:24:49;2.03;;;1.92;;
80229;SDS011;69540;42.136;24.742;2024-02-16T12:27:16;4.07;;;3.58;;
80229;SDS011;69540;42.136;24.742;2024-02-16T12:29:42;3.10;;;2.80;;
80229;SDS011;69540;42.136;24.742;2024-02-16T12:32:08;2.75;;;2.47;;
80229;SDS011;69540;42.136;24.742;2024-02-16T12:34:37;2.50;;;2.28;;
80229;SDS011;69540;42.136;24.742;2024-02-16T12:37:06;2.63;;;2.42;;
80229;SDS011;69540;42.136;24.742;2024-02-16T12:39:32;3.00;;;2.80;;
80229;SDS011;69540;42.136;24.742;2024-02-16T12:41:59;2.13;;;2.00;;
80229;SDS011;69540;42.136;24.742;2024-02-16T12:44:24;2.30;;;2.10;;
80229;SDS011;69540;42.136;24.742;2024-02-16T12:46:50;2.53;;;2.33;;
80229;SDS011;69540;42.136;24.742;2024-02-16T12:49:16;2.60;;;2.40;;
80229;SDS011;69540;42.136;24.742;2024-02-16T12:51:42;2.53;;;2.33;;
80229;SDS011;69540;42.136;24.742;2024-02-16T12:54:07;2.55;;;2.35;;
80229;SDS011;69540;42.136;24.742;2024-02-16T12:56:38;2.60;;;2.40;;
80229;SDS011;69540;42.136;24.742;2024-02-16T12:59:05;3.60;;;2.90;;
80229;SDS011;69540;42.136;24.742;2024-02-16T13:01:31;3.17;;;2.72;;
80229;SDS011;69540;42.136;24.742;2024-02-16T13:03:56;4.57;;;2.67;;
80229;SDS011;69540;42.136;24.742;2024-02-16T13:06:22;4.10;;;2.55;;
80229;SDS011;69540;42.136;24.742;2024-02-16T13:08:48;3.00;;;2.80;;
80229;SDS011;69540;42.136;24.742;2024-02-16T13:11:14;2.78;;;2.50;;
80229;SDS011;69540;42.136;24.742;2024-02-16T13:13:39;2.85;;;2.60;;
80229;SDS011;69540;42.136;24.742;2024-02-16T13:16:05;3.13;;;2.80;;
80229;SDS011;69540;42.136;24.742;2024-02-16T13:18:31;2.15;;;2.05;;
80229;SDS011;69540;42.136;24.742;2024-02-16T13:20:57;2.38;;;2.28;;
80229;SDS011;69540;42.136;24.742;2024-02-16T13:23:22;2.38;;;2.20;;
80229;SDS011;69540;42.136;24.742;2024-02-16T13:25:48;2.47;;;2.20;;
80229;SDS011;69540;42.136;24.742;2024-02-16T13:28:14;2.30;;;2.10;;
80229;SDS011;69540;42.136;24.742;2024-02-16T13:30:41;2.40;;;2.15;;
80229;SDS011;69540;42.136;24.742;2024-02-16T13:33:07;2.25;;;2.15;;
80229;SDS011;69540;42.136;24.742;2024-02-16T13:35:34;2.67;;;2.47;;
80229;SDS011;69540;42.136;24.742;2024-02-16T13:38:01;2.47;;;2.28;;
80229;SDS011;69540;42.136;24.742;2024-02-16T13:40:26;2.17;;;1.98;;
80229;SDS011;69540;42.136;24.742;2024-02-16T13:42:52;2.45;;;2.20;;
80229;SDS011;69540;42.136;24.742;2024-02-16T13:45:24;5.00;;;2.27;;
80229;SDS011;69540;42.136;24.742;2024-02-16T13:47:51;2.30;;;2.20;;
80229;SDS011;69540;42.136;24.742;2024-02-16T13:50:17;2.45;;;2.25;;
80229;SDS011;69540;42.136;24.742;2024-02-16T13:52:42;2.97;;;2.65;;
80229;SDS011;69540;42.136;24.742;2024-02-16T13:55:08;2.83;;;2.60;;
80229;SDS011;69540;42.136;24.742;2024-02-16T13:57:34;2.70;;;2.50;;
80229;SDS011;69540;42.136;24.742;2024-02-16T14:00:00;3.70;;;2.33;;
80229;SDS011;69540;42.136;24.742;2024-02-16T14:02:26;2.90;;;2.60;;
80229;SDS011;69540;42.136;24.742;2024-02-16T14:04:52;3.08;;;2.53;;
80229;SDS011;69540;42.136;24.742;2024-02-16T14:07:18;2.55;;;2.35;;
80229;SDS011;69540;42.136;24.742;2024-02-16T14:09:43;2.70;;;2.50;;
80229;SDS011;69540;42.136;24.742;2024-02-16T14:12:09;3.00;;;2.70;;
80229;SDS011;69540;42.136;24.742;2024-02-16T14:14:36;2.55;;;2.35;;
80229;SDS011;69540;42.136;24.742;2024-02-16T14:17:03;4.05;;;2.58;;
80229;SDS011;69540;42.136;24.742;2024-02-16T14:19:28;2.70;;;2.42;;
80229;SDS011;69540;42.136;24.742;2024-02-16T14:21:55;2.50;;;2.30;;
80229;SDS011;69540;42.136;24.742;2024-02-16T14:24:20;3.85;;;2.40;;
80229;SDS011;69540;42.136;24.742;2024-02-16T14:26:46;3.78;;;2.42;;
80229;SDS011;69540;42.136;24.742;2024-02-16T14:29:12;2.92;;;2.50;;
80229;SDS011;69540;42.136;24.742;2024-02-16T14:31:38;3.10;;;2.80;;
80229;SDS011;69540;42.136;24.742;2024-02-16T14:34:04;3.67;;;3.00;;
80229;SDS011;69540;42.136;24.742;2024-02-16T14:36:29;4.82;;;3.20;;
80229;SDS011;69540;42.136;24.742;2024-02-16T14:38:55;3.92;;;3.28;;